createdAt,value
2022-09-07T00:00:24.521Z,4.60
2022-09-07T00:03:59.616Z,4.25
2022-09-07T00:07:42.253Z,4.10
2022-09-07T00:11:18.704Z,3.95
2022-09-07T00:15:09.708Z,4.10
2022-09-07T00:18:27.374Z,4.62
2022-09-07T00:21:56.625Z,4.18
2022-09-07T00:25:31.794Z,4.62
2022-09-07T00:29:02.476Z,4.20
2022-09-07T00:32:36.729Z,4.65
2022-09-07T00:36:10.452Z,4.60
2022-09-07T00:39:42.229Z,4.60
2022-09-07T00:43:30.655Z,4.28
2022-09-07T00:47:02.463Z,5.25
2022-09-07T00:50:47.076Z,4.82
2022-09-07T00:54:11.014Z,4.50
2022-09-07T00:57:56.817Z,4.90
2022-09-07T01:01:27.423Z,5.00
2022-09-07T01:05:09.619Z,5.12
2022-09-07T01:08:40.553Z,5.35
2022-09-07T01:12:27.128Z,5.30
2022-09-07T01:16:08.791Z,5.03
2022-09-07T01:20:17.885Z,5.37
2022-09-07T01:23:59.457Z,4.85
2022-09-07T01:28:14.746Z,4.85
2022-09-07T01:32:23.661Z,4.80
2022-09-07T01:35:59.915Z,5.18
2022-09-07T01:39:39.910Z,5.40
2022-09-07T01:43:42.304Z,5.18
2022-09-07T01:47:37.645Z,5.50
2022-09-07T01:51:07.089Z,4.55
2022-09-07T01:54:52.088Z,4.68
2022-09-07T01:58:34.181Z,4.47
2022-09-07T02:02:11.508Z,4.47
2022-09-07T02:06:11.630Z,4.85
2022-09-07T02:09:57.835Z,5.47
2022-09-07T02:13:39.844Z,5.35
2022-09-07T02:17:24.650Z,5.47
2022-09-07T02:21:02.048Z,5.60
2022-09-07T02:24:38.259Z,5.50
2022-09-07T02:28:25.224Z,5.43
2022-09-07T02:31:57.835Z,6.57
2022-09-07T02:35:31.672Z,5.68
2022-09-07T02:38:59.429Z,6.00
2022-09-07T02:42:44.815Z,6.20
2022-09-07T02:46:34.469Z,5.65
2022-09-07T02:50:26.607Z,5.93
2022-09-07T02:54:13.033Z,6.35
2022-09-07T02:57:55.509Z,6.05
2022-09-07T03:01:35.848Z,6.35
2022-09-07T03:05:08.918Z,6.10
2022-09-07T03:08:55.629Z,5.57
2022-09-07T03:12:28.614Z,6.12
2022-09-07T03:16:13.591Z,5.45
2022-09-07T03:19:44.588Z,5.50
2022-09-07T03:23:13.889Z,5.68
2022-09-07T03:26:52.445Z,5.75
2022-09-07T03:30:21.897Z,6.32
2022-09-07T03:34:04.690Z,6.05
2022-09-07T03:37:40.460Z,5.80
2022-09-07T03:41:24.503Z,6.50
2022-09-07T03:44:56.421Z,6.70
2022-09-07T03:48:30.578Z,6.12
2022-09-07T03:52:00.045Z,5.37
2022-09-07T03:55:41.854Z,5.60
2022-09-07T03:59:11.073Z,6.07
2022-09-07T04:02:50.557Z,5.78
2022-09-07T04:06:30.530Z,6.28
2022-09-07T04:10:06.128Z,6.00
2022-09-07T04:13:49.294Z,6.20
2022-09-07T04:17:15.884Z,7.00
2022-09-07T04:20:54.340Z,5.72
2022-09-07T04:24:27.463Z,6.05
2022-09-07T04:27:56.731Z,5.87
2022-09-07T04:31:28.743Z,5.68
2022-09-07T04:35:06.708Z,5.82
2022-09-07T04:38:37.915Z,5.68
2022-09-07T04:42:08.459Z,5.55
2022-09-07T04:45:44.216Z,5.50
2022-09-07T04:49:31.657Z,5.90
2022-09-07T04:52:59.646Z,5.78
2022-09-07T04:56:34.745Z,5.62
2022-09-07T05:00:10.837Z,5.45
2022-09-07T05:03:32.320Z,5.47
2022-09-07T05:07:02.408Z,5.10
2022-09-07T05:10:37.572Z,5.22
2022-09-07T05:14:13.690Z,4.62
2022-09-07T05:17:41.213Z,5.00
2022-09-07T05:21:21.091Z,5.00
2022-09-07T05:24:53.667Z,5.10
2022-09-07T05:28:22.892Z,5.07
2022-09-07T05:32:10.409Z,4.72
2022-09-07T05:35:40.439Z,4.62
2022-09-07T05:39:13.983Z,4.60
2022-09-07T05:42:45.734Z,4.60
2022-09-07T05:49:49.831Z,4.60
2022-09-07T05:53:22.760Z,4.95
2022-09-07T05:56:53.829Z,4.70
2022-09-07T06:00:24.761Z,4.60
2022-09-07T06:03:55.923Z,4.68
2022-09-07T06:07:31.792Z,4.57
2022-09-07T06:11:19.859Z,4.20
2022-09-07T06:15:05.767Z,4.10
2022-09-07T06:18:40.510Z,4.18
2022-09-07T06:22:30.078Z,3.97
2022-09-07T06:26:00.500Z,4.28
2022-09-07T06:29:33.902Z,4.07
2022-09-07T06:33:22.880Z,3.80
2022-09-07T06:36:40.875Z,3.42
2022-09-07T06:40:12.738Z,4.03
2022-09-07T06:43:57.164Z,4.05
2022-09-07T06:47:42.773Z,3.85
2022-09-07T06:51:20.916Z,3.83
2022-09-07T06:55:04.674Z,3.62
2022-09-07T06:58:42.319Z,3.72
2022-09-07T07:02:15.760Z,3.80
2022-09-07T07:06:03.137Z,3.80
2022-09-07T07:09:37.588Z,3.50
2022-09-07T07:16:35.496Z,3.60
2022-09-07T07:20:05.253Z,3.75
2022-09-07T07:23:48.621Z,3.70
2022-09-07T07:27:43.498Z,4.07
2022-09-07T07:31:21.648Z,3.70
2022-09-07T07:34:52.317Z,3.70
2022-09-07T07:41:55.314Z,3.87
2022-09-07T07:49:21.226Z,3.90
2022-09-07T07:56:36.925Z,3.20
2022-09-07T08:19:27.713Z,2.92
2022-09-07T08:27:06.667Z,3.03
2022-09-07T08:30:56.602Z,3.15
2022-09-07T08:38:21.069Z,3.15
2022-09-07T08:41:51.649Z,3.37
2022-09-07T08:45:45.064Z,2.92
2022-09-07T08:49:24.178Z,3.30
2022-09-07T08:53:14.618Z,2.90
2022-09-07T09:00:39.302Z,3.22
2022-09-07T09:04:32.254Z,3.00
2022-09-07T09:08:56.264Z,3.00
2022-09-07T09:12:58.921Z,2.80
2022-09-07T09:16:41.620Z,2.90
2022-09-07T09:20:26.589Z,3.10
2022-09-07T09:24:02.540Z,3.28
2022-09-07T09:27:49.049Z,2.90
2022-09-07T09:31:26.580Z,3.28
2022-09-07T09:35:42.270Z,3.20
2022-09-07T09:39:38.650Z,3.22
2022-09-07T09:43:36.438Z,3.80
2022-09-07T09:47:36.295Z,3.08
2022-09-07T09:55:34.265Z,3.83
2022-09-07T10:07:18.951Z,3.83
2022-09-07T10:11:06.876Z,3.70
2022-09-07T10:14:47.413Z,3.67
2022-09-07T10:18:35.266Z,3.42
2022-09-07T10:22:54.000Z,3.70
2022-09-07T10:26:37.264Z,3.70
2022-09-07T10:30:17.111Z,3.22
2022-09-07T10:37:44.384Z,3.40
2022-09-07T10:41:44.357Z,3.28
2022-09-07T10:45:23.985Z,3.22
2022-09-07T10:49:27.830Z,3.40
2022-09-07T10:53:39.621Z,3.83
2022-09-07T10:57:27.343Z,3.97
2022-09-07T11:01:22.425Z,3.67
2022-09-07T11:05:11.530Z,4.80
2022-09-07T11:09:18.815Z,4.70
2022-09-07T11:12:47.439Z,6.07
2022-09-07T11:16:53.389Z,6.55
2022-09-07T11:20:59.020Z,6.62
2022-09-07T11:33:20.732Z,6.72
2022-09-07T11:37:59.389Z,6.75
2022-09-07T11:41:59.481Z,7.60
2022-09-07T11:46:36.915Z,7.50
2022-09-07T11:50:23.981Z,7.50
2022-09-07T11:54:56.818Z,7.20
2022-09-07T11:58:49.397Z,7.20
2022-09-07T12:03:24.053Z,7.47
2022-09-07T12:07:31.872Z,7.30
2022-09-07T12:12:00.492Z,6.72
2022-09-07T12:16:29.720Z,6.80
2022-09-07T12:20:59.650Z,7.57
2022-09-07T12:24:48.651Z,7.62
2022-09-07T12:28:38.081Z,7.97
2022-09-07T12:32:57.417Z,7.82
2022-09-07T12:36:38.285Z,7.85
2022-09-07T12:40:32.420Z,7.68
2022-09-07T12:44:14.959Z,7.50
2022-09-07T12:48:19.796Z,7.50
2022-09-07T12:52:34.238Z,8.23
2022-09-07T12:57:29.125Z,8.40
2022-09-07T13:00:56.887Z,8.00
2022-09-07T13:05:26.445Z,8.93
2022-09-07T13:09:40.582Z,8.27
2022-09-07T13:14:09.459Z,8.68
2022-09-07T13:17:56.620Z,7.72
2022-09-07T13:21:50.894Z,7.70
2022-09-07T13:25:47.454Z,8.15
2022-09-07T13:30:07.310Z,7.68
2022-09-07T13:33:42.798Z,7.55
2022-09-07T13:37:49.527Z,7.30
2022-09-07T13:41:17.732Z,6.95
2022-09-07T13:45:29.827Z,7.22
2022-09-07T13:49:06.589Z,7.60
2022-09-07T13:53:30.726Z,5.78
2022-09-07T13:57:27.913Z,6.80
2022-09-07T14:01:46.020Z,5.00
2022-09-07T14:06:10.025Z,4.57
2022-09-07T14:10:06.287Z,5.03
2022-09-07T14:14:14.710Z,4.97
2022-09-07T14:18:22.543Z,4.47
2022-09-07T14:22:39.033Z,3.20
2022-09-07T14:26:24.352Z,3.78
2022-09-07T14:30:20.329Z,4.00
2022-09-07T14:34:04.600Z,4.18
2022-09-07T14:42:15.203Z,3.30
2022-09-07T14:46:26.105Z,3.00
2022-09-07T14:50:18.512Z,3.15
2022-09-07T14:54:10.780Z,4.30
2022-09-07T14:58:08.286Z,5.40
2022-09-07T15:02:19.722Z,5.80
2022-09-07T15:06:09.024Z,5.85
2022-09-07T15:10:20.477Z,5.62
2022-09-07T15:14:20.515Z,5.90
2022-09-07T15:18:42.126Z,6.05
2022-09-07T15:22:24.906Z,6.65
2022-09-07T15:27:04.513Z,7.03
2022-09-07T15:30:37.578Z,7.80
2022-09-07T15:34:41.166Z,6.75
2022-09-07T15:46:17.708Z,7.47
2022-09-07T15:50:28.848Z,7.60
2022-09-07T15:54:15.803Z,8.00
2022-09-07T15:58:22.683Z,7.68
2022-09-07T16:06:22.130Z,7.75
2022-09-07T16:10:10.294Z,8.32
2022-09-07T16:14:15.481Z,7.70
2022-09-07T16:17:58.643Z,7.93
2022-09-07T16:22:01.555Z,7.95
2022-09-07T16:26:00.962Z,8.10
2022-09-07T16:30:10.468Z,8.23
2022-09-07T16:33:53.339Z,8.40
2022-09-07T16:41:46.786Z,8.40
2022-09-07T16:46:03.458Z,8.88
2022-09-07T16:49:47.068Z,8.45
2022-09-07T16:53:53.194Z,8.75
2022-09-07T17:01:41.359Z,8.20
2022-09-07T17:05:25.791Z,8.75
2022-09-07T17:09:41.897Z,9.25
2022-09-07T17:13:26.628Z,8.70
2022-09-07T17:17:31.784Z,9.07
2022-09-07T17:21:15.088Z,8.82
2022-09-07T17:25:22.208Z,9.10
2022-09-07T17:29:08.641Z,9.43
2022-09-07T17:33:11.421Z,9.73
2022-09-07T17:36:54.013Z,9.38
2022-09-07T17:41:07.022Z,10.00
2022-09-07T17:44:58.066Z,9.68
2022-09-07T17:49:03.483Z,10.60
2022-09-07T17:52:52.914Z,10.73
